Terminal Aerodrome Forecast
Issued by NWS Cleveland, OH

Home | Current Version | Previous Version | Text Only | Print | Product List | Glossary Off
Versions: 1 2 3 4 5 6 7 8 9 10 11 12 13 14 15 16 17 18 19

000
FTUS41 KCLE 182100 AAA
TAFCAK
TAF AMD
KCAK 182115Z 1821/1918 31010G20KT 6SM -SHRA SCT015 OVC025
      TEMPO 1821/1901 5SM -SHRA BKN015
     FM190100 30010KT P6SM VCSH OVC025
     FM190800 31006KT P6SM BKN025=

USA.gov is the U.S. government's official web portal to all federal, state and local government web resources and services.